createdAt,value
2019-03-24T00:00:10.930Z,91.30
2019-03-24T00:02:39.257Z,91.20
2019-03-24T00:05:05.520Z,91.20
2019-03-24T00:07:31.771Z,91.10
2019-03-24T00:09:57.930Z,91.00
2019-03-24T00:12:24.287Z,90.90
2019-03-24T00:14:50.415Z,90.80
2019-03-24T00:17:16.667Z,90.90
2019-03-24T00:19:42.812Z,90.90
2019-03-24T00:22:08.955Z,90.70
2019-03-24T00:24:35.094Z,90.60
2019-03-24T00:27:01.242Z,90.60
2019-03-24T00:29:27.390Z,90.50
2019-03-24T00:31:53.535Z,90.50
2019-03-24T00:34:19.683Z,90.40
2019-03-24T00:36:46.158Z,90.30
2019-03-24T00:39:12.580Z,90.30
2019-03-24T00:41:38.722Z,90.20
2019-03-24T00:44:04.868Z,90.30
2019-03-24T00:46:32.021Z,90.30
2019-03-24T00:48:58.155Z,90.40
2019-03-24T00:51:24.305Z,90.30
2019-03-24T00:53:50.438Z,90.20
2019-03-24T00:56:16.903Z,90.30
2019-03-24T00:58:43.043Z,90.30
2019-03-24T01:01:09.183Z,90.30
2019-03-24T01:03:35.329Z,90.30
2019-03-24T01:06:01.944Z,90.40
2019-03-24T01:08:28.224Z,90.50
2019-03-24T01:10:54.683Z,90.50
2019-03-24T01:13:21.031Z,90.40
2019-03-24T01:15:48.169Z,90.50
2019-03-24T01:18:14.698Z,90.50
2019-03-24T01:20:40.847Z,90.60
2019-03-24T01:23:06.992Z,90.70
2019-03-24T01:25:33.128Z,90.70
2019-03-24T01:27:59.265Z,90.60
2019-03-24T01:30:25.634Z,90.70
2019-03-24T01:32:52.064Z,90.70
2019-03-24T01:35:18.199Z,90.80
2019-03-24T01:37:44.347Z,90.90
2019-03-24T01:40:10.692Z,90.90
2019-03-24T01:42:36.835Z,90.90
2019-03-24T01:45:05.175Z,90.90
2019-03-24T01:47:31.591Z,91.40
2019-03-24T01:49:57.732Z,91.10
2019-03-24T01:52:23.866Z,91.20
2019-03-24T01:54:50.291Z,91.20
2019-03-24T01:57:16.427Z,91.30
2019-03-24T01:59:42.581Z,91.30
2019-03-24T02:02:08.753Z,91.20
2019-03-24T02:04:34.965Z,91.20
2019-03-24T02:07:01.150Z,91.30
2019-03-24T02:09:27.302Z,91.50
2019-03-24T02:11:53.671Z,91.30
2019-03-24T02:14:19.839Z,91.30
2019-03-24T02:16:45.972Z,91.40
2019-03-24T02:19:13.227Z,91.30
2019-03-24T02:21:40.362Z,91.40
2019-03-24T02:24:06.511Z,91.40
2019-03-24T02:26:32.642Z,91.40
2019-03-24T02:28:58.800Z,91.40
2019-03-24T02:31:24.940Z,91.30
2019-03-24T02:33:51.287Z,91.30
2019-03-24T02:36:17.421Z,91.40
2019-03-24T02:38:43.567Z,91.30
2019-03-24T02:41:09.710Z,91.80
2019-03-24T02:43:35.848Z,91.40
2019-03-24T02:46:01.999Z,91.30
2019-03-24T02:48:28.152Z,91.40
2019-03-24T02:50:54.303Z,91.50
2019-03-24T02:53:20.502Z,91.50
2019-03-24T02:55:46.693Z,91.60
2019-03-24T02:58:12.941Z,91.60
2019-03-24T03:00:39.477Z,91.70
2019-03-24T03:03:05.618Z,91.70
2019-03-24T03:05:53.344Z,91.70
2019-03-24T03:08:19.503Z,91.60
2019-03-24T03:10:45.668Z,91.60
2019-03-24T03:13:12.930Z,91.50
2019-03-24T03:15:39.096Z,91.80
2019-03-24T03:18:05.277Z,91.70
2019-03-24T03:20:32.523Z,91.60
2019-03-24T03:22:58.986Z,91.60
2019-03-24T03:25:25.181Z,91.60
2019-03-24T03:27:51.407Z,91.70
2019-03-24T03:30:17.662Z,91.80
2019-03-24T03:32:43.920Z,91.80
2019-03-24T03:35:10.372Z,91.70
2019-03-24T03:37:36.869Z,91.70
2019-03-24T03:40:06.334Z,91.70
2019-03-24T03:42:32.514Z,91.70
2019-03-24T03:44:58.713Z,91.60
2019-03-24T03:47:24.883Z,91.60
2019-03-24T03:49:51.046Z,91.70
2019-03-24T03:52:17.204Z,91.60
2019-03-24T03:54:43.374Z,91.60
2019-03-24T03:57:09.535Z,91.60
2019-03-24T03:59:35.686Z,91.60
2019-03-24T04:02:01.862Z,91.60
2019-03-24T04:04:28.358Z,91.60
2019-03-24T04:06:54.526Z,91.60
2019-03-24T04:09:20.676Z,91.50
2019-03-24T04:11:46.849Z,91.40
2019-03-24T04:14:12.992Z,91.20
2019-03-24T04:16:39.163Z,91.20
2019-03-24T04:19:05.334Z,91.20
2019-03-24T04:21:32.481Z,91.10
2019-03-24T04:23:58.638Z,91.20
2019-03-24T04:26:24.790Z,91.20
2019-03-24T04:28:50.944Z,91.20
2019-03-24T04:31:17.103Z,90.90
2019-03-24T04:33:43.297Z,91.10
2019-03-24T04:36:09.755Z,91.00
2019-03-24T04:38:36.165Z,91.10
2019-03-24T04:41:03.339Z,91.00
2019-03-24T04:43:29.487Z,91.10
2019-03-24T04:45:55.758Z,91.00
2019-03-24T04:48:23.024Z,90.90
2019-03-24T04:50:49.185Z,91.10
2019-03-24T04:53:15.348Z,91.10
2019-03-24T04:55:41.505Z,91.10
2019-03-24T04:58:07.656Z,90.90
2019-03-24T05:00:38.024Z,91.10
2019-03-24T05:03:04.192Z,91.10
2019-03-24T05:05:30.638Z,91.20
2019-03-24T05:07:57.010Z,91.20
2019-03-24T05:10:25.221Z,91.10
2019-03-24T05:12:53.630Z,91.10
2019-03-24T05:15:19.771Z,91.00
2019-03-24T05:17:45.931Z,91.00
2019-03-24T05:20:12.088Z,91.40
2019-03-24T05:22:38.239Z,91.10
2019-03-24T05:25:04.400Z,91.00
2019-03-24T05:27:30.564Z,91.10
2019-03-24T05:29:57.001Z,91.30
2019-03-24T05:32:23.159Z,91.20
2019-03-24T05:34:49.322Z,91.30
2019-03-24T05:37:15.465Z,91.30
2019-03-24T05:39:41.627Z,91.40
2019-03-24T05:42:07.770Z,91.50
2019-03-24T05:44:33.919Z,91.50
2019-03-24T05:47:00.075Z,91.60
2019-03-24T05:49:26.236Z,91.60
2019-03-24T05:51:52.383Z,91.90
2019-03-24T05:54:18.543Z,91.70
2019-03-24T05:56:44.695Z,91.80
2019-03-24T05:59:10.982Z,91.70
2019-03-24T06:01:37.464Z,91.70
2019-03-24T06:04:03.628Z,91.70
2019-03-24T06:06:29.788Z,91.80
2019-03-24T06:08:55.930Z,91.60
2019-03-24T06:11:22.103Z,91.80
2019-03-24T06:13:48.257Z,91.90
2019-03-24T06:16:14.418Z,91.90
2019-03-24T06:18:40.847Z,91.80
2019-03-24T06:21:07.001Z,91.80
2019-03-24T06:23:33.165Z,91.90
2019-03-24T06:25:59.312Z,91.40
2019-03-24T06:28:25.466Z,91.00
2019-03-24T06:30:51.822Z,90.40
2019-03-24T06:33:17.967Z,89.90
2019-03-24T06:35:44.118Z,88.70
2019-03-24T06:38:10.264Z,88.20
2019-03-24T06:40:36.420Z,85.20
2019-03-24T06:43:02.778Z,85.70
2019-03-24T06:45:29.127Z,82.60
2019-03-24T06:47:58.141Z,81.80
2019-03-24T06:50:23.439Z,80.60
2019-03-24T06:52:49.606Z,80.60
2019-03-24T06:55:15.736Z,79.30
2019-03-24T06:57:42.347Z,78.00
2019-03-24T07:00:09.896Z,74.60
2019-03-24T07:02:36.062Z,73.90
2019-03-24T07:05:05.808Z,74.40
2019-03-24T07:07:31.967Z,71.60
2019-03-24T07:09:58.111Z,71.60
2019-03-24T07:12:24.284Z,71.60
2019-03-24T07:14:50.426Z,71.20
2019-03-24T07:17:16.588Z,69.30
2019-03-24T07:19:42.765Z,69.30
2019-03-24T07:22:08.923Z,68.00
2019-03-24T07:24:35.086Z,68.20
2019-03-24T07:27:01.257Z,68.30
2019-03-24T07:29:27.409Z,66.20
2019-03-24T07:31:53.861Z,64.20
2019-03-24T07:34:20.009Z,64.20
2019-03-24T07:36:46.403Z,64.20
2019-03-24T07:39:12.624Z,61.90
2019-03-24T07:41:38.788Z,61.20
2019-03-24T07:44:04.948Z,60.10
2019-03-24T07:46:31.094Z,61.40
2019-03-24T07:48:57.556Z,62.40
2019-03-24T07:51:23.724Z,60.80
2019-03-24T07:53:49.885Z,62.00
2019-03-24T07:56:16.057Z,62.10
2019-03-24T07:58:42.198Z,62.60
2019-03-24T08:01:08.351Z,60.50
2019-03-24T08:03:34.506Z,61.90
2019-03-24T08:06:00.672Z,60.10
2019-03-24T08:08:27.080Z,59.90
2019-03-24T08:10:53.238Z,59.20
2019-03-24T08:13:19.486Z,59.90
2019-03-24T08:15:45.651Z,59.50
2019-03-24T08:18:12.095Z,59.20
2019-03-24T08:20:38.254Z,59.90
2019-03-24T08:23:04.409Z,59.30
2019-03-24T08:25:30.546Z,58.30
2019-03-24T08:27:56.707Z,58.40
2019-03-24T08:30:32.187Z,58.70
2019-03-24T08:32:58.387Z,59.40
2019-03-24T08:35:24.535Z,60.40
2019-03-24T08:37:50.691Z,60.40
2019-03-24T08:40:16.848Z,57.80
2019-03-24T08:42:43.009Z,58.50
2019-03-24T08:45:12.966Z,58.60
2019-03-24T08:47:39.132Z,59.60
2019-03-24T08:50:06.095Z,59.50
2019-03-24T08:52:32.251Z,58.40
2019-03-24T08:54:59.798Z,57.60
2019-03-24T08:57:26.270Z,57.90
2019-03-24T08:59:52.498Z,57.70
2019-03-24T09:02:19.003Z,57.40
2019-03-24T09:04:45.147Z,57.00
2019-03-24T09:07:11.323Z,57.80
2019-03-24T09:09:37.465Z,57.70
2019-03-24T09:12:03.616Z,58.00
2019-03-24T09:14:29.772Z,58.20
2019-03-24T09:16:55.954Z,57.20
2019-03-24T09:19:22.108Z,59.40
2019-03-24T09:21:48.290Z,60.20
2019-03-24T09:24:14.461Z,58.00
2019-03-24T09:26:40.603Z,57.50
2019-03-24T09:29:06.790Z,56.30
2019-03-24T09:31:32.951Z,57.70
2019-03-24T09:33:59.109Z,57.20
2019-03-24T09:36:25.250Z,57.40
2019-03-24T09:38:51.449Z,59.00
2019-03-24T09:41:17.606Z,59.10
2019-03-24T09:43:43.784Z,57.70
2019-03-24T09:46:09.933Z,59.50
2019-03-24T09:48:36.084Z,59.70
2019-03-24T09:51:02.449Z,60.30
2019-03-24T09:53:28.922Z,58.90
2019-03-24T09:55:55.089Z,58.30
2019-03-24T09:58:21.240Z,57.40
2019-03-24T10:00:47.384Z,59.30
2019-03-24T10:03:13.541Z,59.20
2019-03-24T10:05:39.700Z,59.10
2019-03-24T10:08:05.851Z,57.60
2019-03-24T10:10:31.994Z,58.20
2019-03-24T10:12:58.159Z,56.90
2019-03-24T10:15:24.324Z,53.50
2019-03-24T10:17:50.492Z,54.40
2019-03-24T10:20:17.767Z,57.40
2019-03-24T10:22:43.920Z,54.90
2019-03-24T10:25:10.171Z,54.20
2019-03-24T10:27:36.320Z,51.70
2019-03-24T10:30:05.481Z,54.50
2019-03-24T10:32:31.640Z,51.90
2019-03-24T10:34:57.841Z,53.40
2019-03-24T10:37:24.328Z,52.90
2019-03-24T10:39:50.500Z,53.40
2019-03-24T10:42:16.653Z,55.00
2019-03-24T10:44:42.835Z,52.20
2019-03-24T10:47:08.972Z,52.60
2019-03-24T10:49:35.131Z,54.20
2019-03-24T10:52:01.286Z,53.50
2019-03-24T10:54:27.457Z,52.40
2019-03-24T10:56:53.608Z,53.40
2019-03-24T10:59:19.772Z,52.10
2019-03-24T11:01:45.941Z,52.90
2019-03-24T11:04:12.126Z,53.80
2019-03-24T11:06:38.269Z,53.40
2019-03-24T11:09:05.514Z,52.40
2019-03-24T11:11:31.690Z,51.40
2019-03-24T11:13:57.860Z,50.50
2019-03-24T11:16:24.015Z,50.20
2019-03-24T11:18:50.176Z,52.20
2019-03-24T11:21:16.360Z,53.00
2019-03-24T11:23:42.500Z,51.50
2019-03-24T11:26:08.661Z,51.90
2019-03-24T11:28:34.810Z,51.00
2019-03-24T11:31:00.973Z,51.20
2019-03-24T11:33:29.485Z,53.30
2019-03-24T11:35:55.206Z,51.90
2019-03-24T11:38:21.355Z,53.60
2019-03-24T11:40:47.503Z,53.20
2019-03-24T11:43:14.982Z,52.20
2019-03-24T11:45:41.139Z,53.20
2019-03-24T11:48:08.163Z,52.30
2019-03-24T11:50:34.344Z,51.90
2019-03-24T11:53:00.513Z,51.70
2019-03-24T11:55:26.659Z,51.40
2019-03-24T11:57:52.821Z,51.00
2019-03-24T12:00:23.081Z,50.60
2019-03-24T12:02:49.248Z,50.30
2019-03-24T12:05:15.400Z,51.10
2019-03-24T12:07:41.560Z,50.10
2019-03-24T12:10:09.202Z,49.10
2019-03-24T12:12:35.382Z,50.40
2019-03-24T12:15:01.549Z,49.40
2019-03-24T12:17:27.716Z,45.90
2019-03-24T12:19:56.965Z,45.10
2019-03-24T12:22:21.949Z,45.20
2019-03-24T12:24:48.324Z,44.80
2019-03-24T12:27:14.470Z,44.90
2019-03-24T12:29:40.628Z,43.80
2019-03-24T12:32:06.865Z,42.00
2019-03-24T12:34:33.021Z,40.80
2019-03-24T12:36:59.171Z,42.00
2019-03-24T12:39:25.345Z,44.30
2019-03-24T12:41:51.498Z,46.00
2019-03-24T12:44:17.671Z,46.70
2019-03-24T12:46:43.843Z,47.10
2019-03-24T12:49:09.992Z,46.50
2019-03-24T12:51:36.139Z,48.00
2019-03-24T12:54:02.511Z,47.40
2019-03-24T12:56:28.663Z,46.70
2019-03-24T12:58:54.832Z,45.80
2019-03-24T13:01:20.983Z,46.60
2019-03-24T13:03:47.367Z,46.20
2019-03-24T13:06:13.513Z,43.70
2019-03-24T13:08:39.677Z,45.90
2019-03-24T13:11:05.825Z,48.30
2019-03-24T13:13:31.988Z,47.50
2019-03-24T13:15:58.207Z,48.30
2019-03-24T13:18:28.433Z,46.20
2019-03-24T13:20:54.837Z,47.10
2019-03-24T13:23:21.007Z,49.10
2019-03-24T13:25:47.169Z,49.60
2019-03-24T13:28:13.426Z,49.80
2019-03-24T13:30:39.575Z,48.10
2019-03-24T13:33:05.737Z,49.70
2019-03-24T13:35:32.994Z,49.30
2019-03-24T13:37:59.156Z,48.40
2019-03-24T13:40:25.319Z,47.70
2019-03-24T13:42:51.463Z,48.80
2019-03-24T13:45:17.724Z,47.90
2019-03-24T13:47:43.884Z,44.80
2019-03-24T13:50:10.124Z,45.70
2019-03-24T13:52:36.341Z,48.30
2019-03-24T13:55:04.448Z,50.10
2019-03-24T13:57:30.624Z,49.40
2019-03-24T13:59:56.885Z,48.60
2019-03-24T14:02:24.032Z,46.10
2019-03-24T14:04:50.248Z,43.30
2019-03-24T14:07:16.466Z,42.20
2019-03-24T14:09:42.623Z,44.00
2019-03-24T14:12:08.780Z,44.40
2019-03-24T14:14:34.953Z,44.60
2019-03-24T14:17:01.112Z,39.80
2019-03-24T14:19:27.327Z,43.00
2019-03-24T14:21:53.482Z,44.20
2019-03-24T14:24:19.970Z,42.00
2019-03-24T14:26:46.387Z,40.50
2019-03-24T14:29:12.539Z,43.10
2019-03-24T14:31:38.714Z,43.00
2019-03-24T14:34:05.183Z,43.60
2019-03-24T14:36:31.338Z,43.90
2019-03-24T14:38:57.862Z,43.50
2019-03-24T14:41:24.295Z,42.90
2019-03-24T14:43:50.443Z,44.20
2019-03-24T14:46:16.627Z,44.70
2019-03-24T14:48:42.775Z,45.30
2019-03-24T14:51:08.936Z,46.00
2019-03-24T14:53:35.102Z,46.90
2019-03-24T14:56:01.252Z,47.10
2019-03-24T14:58:27.420Z,47.10
2019-03-24T15:00:53.571Z,47.20
2019-03-24T15:03:19.715Z,47.70
2019-03-24T15:05:46.151Z,47.50
2019-03-24T15:08:13.040Z,47.90
2019-03-24T15:10:39.202Z,47.70
2019-03-24T15:13:05.448Z,48.10
2019-03-24T15:15:31.874Z,48.80
2019-03-24T15:17:58.037Z,49.30
2019-03-24T15:20:24.190Z,49.60
2019-03-24T15:22:50.675Z,50.20
2019-03-24T15:25:16.849Z,49.60
2019-03-24T15:27:43.002Z,49.30
2019-03-24T15:30:10.046Z,49.80
2019-03-24T15:32:36.211Z,50.10
2019-03-24T15:35:04.360Z,50.80
2019-03-24T15:37:30.798Z,50.70
2019-03-24T15:39:58.151Z,51.10
2019-03-24T15:42:24.600Z,50.20
2019-03-24T15:44:50.747Z,51.00
2019-03-24T15:47:17.927Z,50.10
2019-03-24T15:49:44.420Z,50.40
2019-03-24T15:52:12.074Z,50.80
2019-03-24T15:54:38.508Z,51.40
2019-03-24T15:57:04.669Z,51.90
2019-03-24T15:59:30.816Z,51.30
2019-03-24T16:01:57.000Z,51.40
2019-03-24T16:04:23.151Z,51.80
2019-03-24T16:06:49.311Z,52.00
2019-03-24T16:09:15.470Z,51.90
2019-03-24T16:11:41.614Z,52.10
2019-03-24T16:14:07.870Z,52.60
2019-03-24T16:16:34.035Z,52.70
2019-03-24T16:19:00.193Z,52.50
2019-03-24T16:21:28.051Z,53.20
2019-03-24T16:23:54.687Z,53.80
2019-03-24T16:26:20.845Z,53.40
2019-03-24T16:28:47.006Z,53.40
2019-03-24T16:31:13.159Z,53.00
2019-03-24T16:33:39.303Z,52.20
2019-03-24T16:36:05.484Z,52.20
2019-03-24T16:38:31.719Z,52.00
2019-03-24T16:40:57.883Z,51.60
2019-03-24T16:43:24.058Z,50.60
2019-03-24T16:45:50.221Z,50.30
2019-03-24T16:48:16.375Z,50.40
2019-03-24T16:50:42.516Z,50.50
2019-03-24T16:53:08.666Z,50.60
2019-03-24T16:55:35.289Z,50.60
2019-03-24T16:58:01.448Z,51.00
2019-03-24T17:00:27.604Z,51.10
2019-03-24T17:02:53.754Z,51.50
2019-03-24T17:05:19.902Z,52.50
2019-03-24T17:07:46.058Z,52.40
2019-03-24T17:10:12.421Z,52.70
2019-03-24T17:12:39.633Z,52.50
2019-03-24T17:15:06.640Z,52.20
2019-03-24T17:17:32.882Z,52.50
2019-03-24T17:19:59.044Z,53.10
2019-03-24T17:22:25.221Z,53.40
2019-03-24T17:24:51.475Z,54.00
2019-03-24T17:27:17.987Z,54.50
2019-03-24T17:29:44.206Z,55.10
2019-03-24T17:32:10.355Z,55.50
2019-03-24T17:34:36.815Z,55.10
2019-03-24T17:37:02.958Z,55.20
2019-03-24T17:39:30.241Z,55.30
2019-03-24T17:41:56.377Z,55.70
2019-03-24T17:44:22.522Z,56.10
2019-03-24T17:46:48.689Z,56.20
2019-03-24T17:49:14.852Z,56.00
2019-03-24T17:51:41.003Z,55.70
2019-03-24T17:54:07.162Z,54.50
2019-03-24T17:56:33.315Z,53.90
2019-03-24T17:58:59.496Z,53.50
2019-03-24T18:01:25.648Z,53.50
2019-03-24T18:03:51.813Z,53.50
2019-03-24T18:06:17.963Z,53.90
2019-03-24T18:08:44.134Z,53.50
2019-03-24T18:11:10.274Z,53.80
2019-03-24T18:13:36.461Z,53.70
2019-03-24T18:16:02.913Z,54.20
2019-03-24T18:18:29.378Z,54.60
2019-03-24T18:20:55.529Z,54.90
2019-03-24T18:23:21.701Z,55.40
2019-03-24T18:25:47.857Z,55.80
2019-03-24T18:28:15.007Z,56.20
2019-03-24T18:30:41.174Z,56.70
2019-03-24T18:33:07.311Z,57.00
2019-03-24T18:35:33.565Z,57.50
2019-03-24T18:38:00.013Z,57.90
2019-03-24T18:40:26.178Z,58.00
2019-03-24T18:42:52.324Z,58.40
2019-03-24T18:45:18.679Z,58.80
2019-03-24T18:47:45.138Z,58.90
2019-03-24T18:50:11.802Z,59.00
2019-03-24T18:52:37.955Z,59.50
2019-03-24T18:55:06.509Z,59.60
2019-03-24T18:57:32.912Z,60.00
2019-03-24T18:59:59.075Z,60.30
2019-03-24T19:02:25.219Z,60.90
2019-03-24T19:04:51.399Z,61.00
2019-03-24T19:07:17.853Z,61.50
2019-03-24T19:09:46.326Z,62.30
2019-03-24T19:12:12.480Z,62.50
2019-03-24T19:14:40.183Z,63.10
2019-03-24T19:17:06.492Z,63.30
2019-03-24T19:19:32.686Z,63.40
2019-03-24T19:21:58.866Z,63.50
2019-03-24T19:24:25.022Z,63.90
2019-03-24T19:26:51.461Z,64.20
2019-03-24T19:29:17.614Z,64.00
2019-03-24T19:31:43.825Z,64.20
2019-03-24T19:34:09.960Z,64.10
2019-03-24T19:36:36.128Z,64.60
2019-03-24T19:39:05.578Z,65.10
2019-03-24T19:41:32.061Z,64.50
2019-03-24T19:43:58.527Z,65.40
2019-03-24T19:46:24.701Z,65.80
2019-03-24T19:48:50.867Z,66.20
2019-03-24T19:51:17.045Z,66.50
2019-03-24T19:53:43.207Z,66.80
2019-03-24T19:56:09.365Z,67.40
2019-03-24T19:58:35.510Z,67.70
2019-03-24T20:01:01.672Z,68.20
2019-03-24T20:03:27.819Z,68.70
2019-03-24T20:05:55.175Z,68.80
2019-03-24T20:08:22.421Z,68.90
2019-03-24T20:10:48.899Z,69.60
2019-03-24T20:13:15.064Z,70.10
2019-03-24T20:15:41.229Z,70.50
2019-03-24T20:18:08.485Z,71.20
2019-03-24T20:20:34.670Z,71.60
2019-03-24T20:23:00.866Z,72.40
2019-03-24T20:25:27.046Z,72.60
2019-03-24T20:27:53.221Z,73.00
2019-03-24T20:30:19.387Z,72.90
2019-03-24T20:32:45.644Z,73.50
2019-03-24T20:35:11.887Z,73.90
2019-03-24T20:37:38.056Z,74.10
2019-03-24T20:40:08.287Z,74.50
2019-03-24T20:42:34.504Z,74.50
2019-03-24T20:45:00.668Z,74.90
2019-03-24T20:47:26.828Z,74.70
2019-03-24T20:49:52.985Z,75.00
2019-03-24T20:52:19.154Z,75.30
2019-03-24T20:54:45.331Z,75.50
2019-03-24T20:57:11.498Z,75.20
2019-03-24T20:59:37.656Z,75.30
2019-03-24T21:02:03.929Z,75.50
2019-03-24T21:04:30.080Z,75.90
2019-03-24T21:06:56.277Z,75.80
2019-03-24T21:09:23.021Z,75.50
2019-03-24T21:11:49.318Z,76.10
2019-03-24T21:14:15.856Z,76.30
2019-03-24T21:16:42.004Z,76.80
2019-03-24T21:19:08.169Z,76.50
2019-03-24T21:21:36.200Z,76.50
2019-03-24T21:24:02.492Z,76.70
2019-03-24T21:26:28.737Z,74.50
2019-03-24T21:28:54.974Z,75.80
2019-03-24T21:31:21.140Z,76.30
2019-03-24T21:33:47.397Z,76.60
2019-03-24T21:36:13.711Z,75.80
2019-03-24T21:38:40.183Z,76.90
2019-03-24T21:41:06.323Z,76.30
2019-03-24T21:43:32.490Z,77.00
2019-03-24T21:45:58.643Z,77.30
2019-03-24T21:48:24.799Z,75.40
2019-03-24T21:50:50.969Z,75.30
2019-03-24T21:53:17.127Z,77.00
2019-03-24T21:55:43.280Z,77.60
2019-03-24T21:58:09.442Z,78.00
2019-03-24T22:00:36.553Z,78.20
2019-03-24T22:03:03.434Z,78.20
2019-03-24T22:05:29.571Z,78.60
2019-03-24T22:07:56.054Z,77.50
2019-03-24T22:10:22.317Z,76.80
2019-03-24T22:12:48.501Z,77.80
2019-03-24T22:15:14.668Z,78.90
2019-03-24T22:17:40.857Z,77.80
2019-03-24T22:20:07.227Z,78.20
2019-03-24T22:22:33.407Z,79.40
2019-03-24T22:24:59.575Z,77.70
2019-03-24T22:27:25.719Z,77.90
2019-03-24T22:29:51.988Z,79.80
2019-03-24T22:32:18.138Z,79.80
2019-03-24T22:34:44.558Z,79.40
2019-03-24T22:37:15.866Z,79.50
2019-03-24T22:39:38.774Z,78.80
2019-03-24T22:42:04.933Z,77.70
2019-03-24T22:44:31.091Z,78.20
2019-03-24T22:46:57.543Z,77.10
2019-03-24T22:49:23.974Z,78.80
2019-03-24T22:51:50.158Z,78.10
2019-03-24T22:54:16.322Z,78.60
2019-03-24T22:56:42.570Z,77.80
2019-03-24T22:59:08.842Z,78.60
2019-03-24T23:01:35.086Z,78.80
2019-03-24T23:04:01.456Z,79.00
2019-03-24T23:06:27.599Z,80.10
2019-03-24T23:08:54.015Z,79.30
2019-03-24T23:11:20.381Z,79.40
2019-03-24T23:13:46.770Z,81.60
2019-03-24T23:16:12.922Z,80.50
2019-03-24T23:18:39.095Z,81.00
2019-03-24T23:21:05.267Z,82.30
2019-03-24T23:23:31.439Z,82.90
2019-03-24T23:25:57.591Z,83.50
2019-03-24T23:28:23.743Z,81.50
2019-03-24T23:30:49.991Z,82.40
2019-03-24T23:33:16.147Z,83.80
2019-03-24T23:35:42.322Z,83.20
2019-03-24T23:38:08.463Z,83.50
2019-03-24T23:40:34.632Z,83.20
2019-03-24T23:43:00.795Z,83.00
2019-03-24T23:45:26.953Z,84.20
2019-03-24T23:47:53.327Z,83.40
2019-03-24T23:50:19.481Z,83.80
2019-03-24T23:52:45.645Z,83.30
2019-03-24T23:55:11.786Z,83.00
2019-03-24T23:57:37.939Z,84.20
